Hauptseite
METAR-TAF:

METAR-TAF

Flughäfen :

Southampton International Airport

Southampton, England

Breite: 50-54N, Länge: 001-24W, Höhe: 9 m

Beobachtung

Neuester Wetterbericht von vor 20 Stunden und 16 Minuten, um 12:20 UTC
Wind 3 kt aus unterschiedlichen Richtungen
Temperatur 20°C
Luftfeuchtigkeit 53%
Luftdruck 1024 hPa
Sichtweite 10 km oder mehr
keine Wolken unter 1500 m und keine Kumulonimbus oder Gewitterwolken

METAR: EGHI 081220Z VRB03KT CAVOK 20/10 Q1024

Zeit: 09:36 (08:36 UTC)

Prognose

Neuester Wetterbericht von vor 21 Stunden und 6 Minuten, um 11:30 UTC
Gültige Prognose vom 08 um 11 UTC bis 08 um 13 UTC
Wind 4 kt aus Nord
Sichtweite 10 km oder mehr
Leicht bewölkt in der Höhe von 3000 ft
Wahrscheinlichkeit 30% :
Zeitweise
vom 08 um 12 UTC bis 08 um 13 UTC
Sichtweite: 7000 m
Regenschauer

TAF: EGHI 081130Z 0811/0813 01004KT 9999 FEW030 PROB30 TEMPO 0812/0813 7000 SHRA

Wetterbeobachtungen und Prognosen von mehr als 4000 Flughäfen (METAR und TAF Bericht).

Die verfügbaren Stationen werden durch gelbe und rote Markierungen auf der Karte dargestellt.

Führen Sie die Maus auf sie, um den Namen der Station zu sehen.

Darauf klicken, um die Beobachtung von Wetterbeobachtungen und Prognosen zu sehen.

Um die Karte zu ändern : klicken Sie auf den grünen Tasten mit einem schwarzen Kreuz Zum Vergrößern, auf den grünen Button mit einem Gedankenstrich zu verkleinern, oder auf die grünen Pfeile für benachbarte Karten.


METAR-TAF: